Time;durP1;ratioP1;P1;durP2;ratioP2;P2;SDS_P1;SDS_P2;PMS_P1;PMS_P2;Temp;Humidity;BMP_temperature;BMP_pressure;BME280_temperature;BME280_humidity;BME280_pressure;Samples;Min_cycle;Max_cycle;Signal;HPM_P1;HPM_P2
2021/06/25 00:00:34;;;;;;;3.95;2.95;;;;;;;20.57;51.22;101903.31;5013313;28;20572;-59
2021/06/25 00:03:00;;;;;;;4.95;2.88;;;;;;;20.57;51.10;101908.63;5014416;28;20022;-59
2021/06/25 00:05:25;;;;;;;5.85;3.28;;;;;;;20.56;51.50;101896.34;5013750;28;20026;-60
2021/06/25 00:07:51;;;;;;;4.60;3.20;;;;;;;20.56;50.79;101906.94;5013072;28;20461;-60
2021/06/25 00:10:16;;;;;;;4.53;3.20;;;;;;;20.55;50.89;101904.41;5013146;28;20305;-59
2021/06/25 00:12:41;;;;;;;4.53;3.03;;;;;;;20.56;51.15;101908.75;5013342;28;20053;-60
2021/06/25 00:15:08;;;;;;;4.97;3.17;;;;;;;20.55;51.03;101907.03;5012481;28;20026;-60
2021/06/25 00:17:33;;;;;;;5.22;3.30;;;;;;;20.53;50.99;101907.16;5013339;28;20271;-59
2021/06/25 00:19:59;;;;;;;4.78;3.38;;;;;;;20.53;50.88;101903.66;5013632;28;20036;-59
2021/06/25 00:22:27;;;;;;;6.20;3.30;;;;;;;20.53;50.86;101901.84;5012315;28;20109;-59
2021/06/25 00:24:53;;;;;;;5.00;3.20;;;;;;;20.52;50.67;101897.53;5013446;28;20079;-58
2021/06/25 00:27:18;;;;;;;4.15;2.75;;;;;;;20.52;50.95;101902.84;5012160;28;20128;-59
2021/06/25 00:29:43;;;;;;;4.40;3.00;;;;;;;20.50;50.89;101891.50;5013487;28;20101;-59
2021/06/25 00:32:09;;;;;;;6.18;3.30;;;;;;;20.50;50.58;101886.19;5013161;28;20064;-59
2021/06/25 00:34:34;;;;;;;4.63;2.92;;;;;;;20.50;50.54;101885.38;5013082;28;20087;-59
2021/06/25 00:36:59;;;;;;;4.57;3.05;;;;;;;20.48;50.55;101881.00;5013321;28;20037;-59
2021/06/25 00:39:25;;;;;;;4.10;2.80;;;;;;;20.47;50.26;101878.47;5012697;28;20425;-58
2021/06/25 00:41:50;;;;;;;4.55;3.45;;;;;;;20.48;50.30;101886.31;5012201;28;20029;-58
2021/06/25 00:44:22;;;;;;;4.05;2.80;;;;;;;20.45;50.34;101875.94;5012937;28;20034;-59
2021/06/25 00:46:48;;;;;;;3.90;2.90;;;;;;;20.46;50.29;101875.00;5012900;28;20057;-59
2021/06/25 00:49:14;;;;;;;4.97;3.03;;;;;;;20.44;50.42;101868.13;5011816;28;20068;-59
2021/06/25 00:51:41;;;;;;;5.13;3.05;;;;;;;20.45;50.16;101870.66;5013258;28;20030;-59
2021/06/25 00:54:15;;;;;;;4.97;3.05;;;;;;;20.44;50.01;101860.19;5012757;28;20029;-59
2021/06/25 00:56:40;;;;;;;;;;;;;;;20.43;50.08;101862.00;5012653;28;20029;-58
2021/06/25 00:59:06;;;;;;;4.55;3.08;;;;;;;20.43;50.12;101858.50;5012587;28;19913;-59
2021/06/25 01:01:31;;;;;;;5.15;3.10;;;;;;;20.43;49.94;101867.28;5012990;28;20022;-59
2021/06/25 01:04:00;;;;;;;4.90;2.72;;;;;;;20.41;49.89;101853.31;5012024;28;20030;-59
2021/06/25 01:06:25;;;;;;;4.15;2.75;;;;;;;20.41;49.81;101852.47;5012526;28;20026;-59
2021/06/25 01:08:51;;;;;;;4.40;2.88;;;;;;;20.41;49.81;101860.41;5012946;28;20034;-59
2021/06/25 01:11:17;;;;;;;4.55;2.83;;;;;;;20.40;49.68;101854.28;5012289;28;20113;-58
2021/06/25 01:13:45;;;;;;;4.38;2.95;;;;;;;20.39;49.48;101855.22;5012823;28;20022;-58
2021/06/25 01:16:11;;;;;;;5.60;2.78;;;;;;;20.37;49.82;101845.72;5012790;28;20108;-58
2021/06/25 01:18:36;;;;;;;4.28;2.75;;;;;;;20.39;49.66;101851.75;5012154;28;20054;-59
2021/06/25 01:21:02;;;;;;;6.75;3.05;;;;;;;20.37;49.61;101851.03;5012386;28;20113;-59
2021/06/25 01:23:28;;;;;;;5.70;3.03;;;;;;;20.38;49.50;101847.44;5012738;28;20037;-59
2021/06/25 01:25:54;;;;;;;5.28;2.90;;;;;;;20.37;49.64;101853.66;5011626;28;20103;-59
2021/06/25 01:28:21;;;;;;;4.95;2.80;;;;;;;20.36;49.55;101850.19;5012249;28;20378;-59
2021/06/25 01:30:48;;;;;;;4.60;2.90;;;;;;;20.35;49.50;101855.59;5012077;28;20042;-59
2021/06/25 01:33:16;;;;;;;4.00;2.88;;;;;;;20.35;49.49;101855.59;5012394;28;20390;-59
2021/06/25 01:35:41;;;;;;;5.38;3.10;;;;;;;20.35;49.82;101853.78;5012593;28;20397;-59
2021/06/25 01:38:08;;;;;;;5.00;3.25;;;;;;;20.34;49.37;101845.97;5011532;28;20052;-59
2021/06/25 01:40:38;;;;;;;4.72;2.85;;;;;;;20.33;49.20;101847.78;5012425;28;20392;-59
2021/06/25 01:43:05;;;;;;;4.70;3.30;;;;;;;20.32;49.16;101839.94;5012280;28;20514;-59
2021/06/25 01:45:33;;;;;;;5.45;3.28;;;;;;;20.33;49.11;101844.25;5011719;28;20129;-59
2021/06/25 01:47:59;;;;;;;5.22;3.22;;;;;;;20.32;49.12;101847.88;5012592;28;20022;-58
2021/06/25 01:50:28;;;;;;;4.97;3.10;;;;;;;20.31;49.20;101839.06;5012119;28;20030;-58
2021/06/25 01:52:56;;;;;;;4.40;3.05;;;;;;;20.29;49.24;101836.53;5011671;28;20029;-59
2021/06/25 01:55:25;;;;;;;4.43;3.00;;;;;;;20.29;48.98;101833.91;5012036;28;20394;-60
2021/06/25 01:57:50;;;;;;;4.60;3.00;;;;;;;20.27;49.07;101827.88;5012294;28;20468;-58
2021/06/25 02:00:16;;;;;;;5.45;3.05;;;;;;;20.28;49.07;101834.88;5010749;28;20058;-58
2021/06/25 02:02:42;;;;;;;5.53;3.05;;;;;;;20.27;49.09;101835.81;5012124;28;20103;-58
2021/06/25 02:05:13;;;;;;;5.47;2.88;;;;;;;20.28;48.80;101836.66;5012046;28;20022;-58
2021/06/25 02:07:38;;;;;;;6.07;2.92;;;;;;;20.26;48.86;101834.13;5011424;28;20029;-58
2021/06/25 02:10:10;;;;;;;6.03;3.30;;;;;;;20.26;48.72;101831.47;5012004;28;20378;-59
2021/06/25 02:12:36;;;;;;;4.57;3.20;;;;;;;20.24;48.85;101828.09;5012224;28;20145;-58
2021/06/25 02:15:04;;;;;;;6.22;3.20;;;;;;;20.25;48.74;101835.09;5011329;28;20491;-58
2021/06/25 02:17:30;;;;;;;5.75;3.10;;;;;;;20.23;48.85;101826.41;5012193;28;20073;-58
2021/06/25 02:19:55;;;;;;;5.45;3.17;;;;;;;20.24;48.77;101829.94;5011335;28;20034;-58
2021/06/25 02:22:20;;;;;;;4.97;3.23;;;;;;;20.23;48.70;101823.75;5011740;28;20048;-58
2021/06/25 02:24:46;;;;;;;5.25;3.10;;;;;;;20.23;48.42;101828.22;5012371;28;20739;-59
2021/06/25 02:27:11;;;;;;;5.00;3.20;;;;;;;20.19;48.56;101819.69;5010847;28;20390;-58
2021/06/25 02:29:36;;;;;;;5.35;3.10;;;;;;;20.22;48.57;101829.19;5012236;28;20117;-58
2021/06/25 02:32:02;;;;;;;4.45;3.00;;;;;;;20.22;48.49;101826.53;5011454;28;20050;-59
2021/06/25 02:34:28;;;;;;;5.30;3.17;;;;;;;20.21;48.64;101820.41;5010772;28;20029;-59
2021/06/25 02:36:53;;;;;;;4.68;3.47;;;;;;;20.21;48.53;101830.16;5011574;28;20441;-59
2021/06/25 02:39:19;;;;;;;4.65;3.00;;;;;;;20.21;48.25;101822.22;5011130;28;20046;-59
2021/06/25 02:41:45;;;;;;;4.45;3.20;;;;;;;20.21;48.59;101816.91;5010797;28;20030;-58
2021/06/25 02:44:11;;;;;;;5.55;3.25;;;;;;;20.20;48.58;101813.44;5011238;28;20018;-60
2021/06/25 02:46:36;;;;;;;4.63;2.95;;;;;;;20.18;48.51;101812.69;5011374;28;20028;-59
2021/06/25 02:49:02;;;;;;;3.75;2.65;;;;;;;20.19;48.36;101816.19;5010439;28;20021;-59
2021/06/25 02:51:27;;;;;;;4.60;3.13;;;;;;;20.18;48.14;101815.34;5011494;28;20026;-59
2021/06/25 02:53:52;;;;;;;5.63;3.10;;;;;;;20.18;48.46;101809.22;5011023;28;20017;-59
2021/06/25 02:56:18;;;;;;;5.10;3.22;;;;;;;20.17;48.14;101805.72;5010857;28;20033;-59
2021/06/25 02:58:43;;;;;;;5.78;3.60;;;;;;;20.14;48.19;101803.31;5011481;28;20196;-58
2021/06/25 03:01:09;;;;;;;4.50;2.70;;;;;;;20.16;48.39;101805.84;5010939;28;20084;-59
2021/06/25 03:03:34;;;;;;;5.80;3.05;;;;;;;20.17;48.04;101804.84;5010898;28;20501;-59
2021/06/25 03:06:06;;;;;;;5.38;3.35;;;;;;;20.14;48.07;101798.00;5011580;28;20080;-58
2021/06/25 03:08:31;;;;;;;4.63;3.20;;;;;;;20.14;48.05;101790.06;5011724;28;20041;-58
2021/06/25 03:10:57;;;;;;;6.78;3.10;;;;;;;20.13;48.20;101787.53;5010997;28;20470;-58
2021/06/25 03:13:23;;;;;;;5.68;3.08;;;;;;;20.13;48.08;101777.78;5014247;28;20038;-58
2021/06/25 03:15:49;;;;;;;5.05;3.30;;;;;;;20.13;47.88;101788.38;5015038;28;20411;-57
2021/06/25 03:18:15;;;;;;;5.72;3.15;;;;;;;20.10;47.97;101776.22;5014018;28;20038;-58
2021/06/25 03:20:41;;;;;;;4.25;2.83;;;;;;;20.10;48.18;101778.03;5014736;28;20022;-59
2021/06/25 03:23:07;;;;;;;4.80;3.13;;;;;;;20.11;47.77;101782.38;5013975;28;20076;-58
2021/06/25 03:25:35;;;;;;;6.78;3.20;;;;;;;20.10;47.78;101784.16;5014444;28;20052;-59
2021/06/25 03:28:04;;;;;;;4.65;2.83;;;;;;;20.09;48.31;101774.53;5014864;28;20081;-59
2021/06/25 03:30:31;;;;;;;5.82;2.83;;;;;;;20.10;47.95;101775.38;5013947;28;20026;-59
2021/06/25 03:32:56;;;;;;;6.28;3.05;;;;;;;20.10;48.10;101780.66;5014725;28;20105;-59
2021/06/25 03:35:22;;;;;;;5.00;3.10;;;;;;;20.08;48.05;101769.38;5014083;28;20169;-59
2021/06/25 03:37:47;;;;;;;6.88;3.50;;;;;;;20.09;47.75;101773.66;5013890;28;20026;-59
2021/06/25 03:40:14;;;;;;;4.45;3.20;;;;;;;20.08;47.63;101767.56;5014316;28;20030;-59
2021/06/25 03:42:40;;;;;;;6.63;3.28;;;;;;;20.08;47.92;101766.72;5014557;28;20029;-59
2021/06/25 03:45:07;;;;;;;4.70;3.20;;;;;;;20.08;47.77;101766.72;5013576;28;20113;-59
2021/06/25 03:47:33;;;;;;;5.13;3.17;;;;;;;20.08;47.92;101769.38;5014356;28;20381;-58
2021/06/25 03:49:58;;;;;;;5.72;3.00;;;;;;;20.07;47.69;101763.19;5014215;28;20021;-58
2021/06/25 03:52:23;;;;;;;6.07;3.60;;;;;;;20.07;47.82;101770.31;5013475;28;20501;-58
2021/06/25 03:54:49;;;;;;;5.35;3.20;;;;;;;20.08;47.89;101772.00;5014425;28;20084;-58
2021/06/25 03:57:14;;;;;;;5.15;3.10;;;;;;;20.08;47.83;101775.50;5014008;28;20018;-59
2021/06/25 03:59:39;;;;;;;5.65;3.17;;;;;;;20.08;47.97;101767.56;5013456;28;20025;-59
2021/06/25 04:02:11;;;;;;;5.63;3.50;;;;;;;20.07;47.92;101762.38;5013959;28;20057;-59
2021/06/25 04:04:40;;;;;;;6.63;3.60;;;;;;;20.07;47.78;101762.38;5014129;28;20381;-59
2021/06/25 04:07:05;;;;;;;5.05;3.17;;;;;;;20.07;47.96;101765.84;5013116;28;20036;-59
2021/06/25 04:09:32;;;;;;;4.80;3.40;;;;;;;20.07;47.70;101754.44;5014044;28;20025;-59
2021/06/25 04:11:57;;;;;;;5.90;3.50;;;;;;;20.07;48.08;101762.38;5013921;28;20354;-59
2021/06/25 04:14:23;;;;;;;4.82;3.40;;;;;;;20.07;48.00;101757.06;5012946;28;20022;-59
2021/06/25 04:16:48;;;;;;;5.00;3.60;;;;;;;20.06;47.87;101760.66;5013660;28;20116;-59
2021/06/25 04:19:13;;;;;;;5.90;3.30;;;;;;;20.07;47.89;101751.78;5013285;28;20050;-59
2021/06/25 04:21:38;;;;;;;5.93;3.80;;;;;;;20.07;48.04;101754.44;5013055;28;20086;-58
2021/06/25 04:24:05;;;;;;;5.32;3.65;;;;;;;20.07;47.91;101754.44;5012581;28;20070;-59
2021/06/25 04:26:30;;;;;;;4.75;3.58;;;;;;;20.05;48.00;101746.59;5012537;28;20128;-59
2021/06/25 04:28:55;;;;;;;5.40;3.78;;;;;;;20.05;48.24;101743.13;5014696;28;20133;-59
2021/06/25 04:31:20;;;;;;;5.15;3.53;;;;;;;20.05;48.31;101741.31;5015224;28;20033;-58
2021/06/25 04:33:46;;;;;;;6.32;3.45;;;;;;;20.06;48.27;101743.00;5013495;28;20183;-61
2021/06/25 04:36:11;;;;;;;4.72;3.30;;;;;;;20.06;48.24;101747.44;5014222;28;20048;-59
2021/06/25 04:38:37;;;;;;;5.93;3.40;;;;;;;20.05;48.36;101741.31;5014816;28;20022;-59
2021/06/25 04:41:03;;;;;;;5.38;3.70;;;;;;;20.05;48.22;101741.31;5014909;28;20092;-58
2021/06/25 04:43:28;;;;;;;5.20;3.63;;;;;;;20.05;48.13;101737.84;5016244;28;20030;-58
2021/06/25 04:45:54;;;;;;;6.00;3.70;;;;;;;20.05;48.40;101740.47;5016656;28;20042;-58
2021/06/25 04:48:19;;;;;;;6.68;4.07;;;;;;;20.05;48.31;101743.97;5014713;28;20089;-59
2021/06/25 04:50:45;;;;;;;4.68;4.05;;;;;;;20.03;47.86;101734.47;5013425;28;20018;-58
2021/06/25 04:53:10;;;;;;;5.88;3.67;;;;;;;20.04;48.43;101736.13;5013117;28;20096;-58
2021/06/25 04:55:41;;;;;;;6.68;4.20;;;;;;;20.05;48.15;101732.53;5012521;28;20033;-58
2021/06/25 04:58:09;;;;;;;5.88;3.72;;;;;;;20.00;48.55;101722.31;5012888;28;20029;-58
2021/06/25 05:00:35;;;;;;;6.18;4.40;;;;;;;20.04;48.41;101729.03;5013138;28;20021;-58
2021/06/25 05:03:01;;;;;;;6.05;3.90;;;;;;;20.04;48.28;101726.38;5012347;28;20026;-58
2021/06/25 05:05:26;;;;;;;5.45;3.65;;;;;;;20.04;48.77;101730.84;5012957;28;20026;-57
2021/06/25 05:07:52;;;;;;;5.60;4.03;;;;;;;20.00;48.46;101724.13;5013054;28;20033;-59
2021/06/25 05:10:17;;;;;;;6.20;3.95;;;;;;;20.04;48.62;101731.69;5012061;28;20822;-58
2021/06/25 05:12:42;;;;;;;6.05;3.85;;;;;;;20.04;48.47;101722.91;5012833;28;20382;-60
2021/06/25 05:15:08;;;;;;;5.63;3.90;;;;;;;20.04;48.42;101726.38;5012583;28;20057;-59
2021/06/25 05:17:34;;;;;;;5.57;3.70;;;;;;;20.04;48.62;101720.25;5012119;28;20034;-59
2021/06/25 05:19:59;;;;;;;5.60;4.40;;;;;;;20.05;48.60;101719.31;5011698;28;20391;-59
2021/06/25 05:22:28;;;;;;;6.75;4.30;;;;;;;20.05;48.63;101714.03;5012601;28;20068;-58
2021/06/25 05:24:54;;;;;;;5.50;3.92;;;;;;;20.05;48.41;101711.38;5012024;28;20026;-58
2021/06/25 05:27:19;;;;;;;5.45;3.83;;;;;;;20.05;48.69;101703.44;5012021;28;20161;-58
2021/06/25 05:29:44;;;;;;;6.18;3.90;;;;;;;20.05;48.83;101708.72;5011734;28;20037;-59
2021/06/25 05:32:09;;;;;;;5.43;3.70;;;;;;;20.04;48.73;101707.88;5012228;28;20030;-59
2021/06/25 05:34:35;;;;;;;6.35;3.78;;;;;;;20.05;48.83;101706.91;5012564;28;20286;-60
2021/06/25 05:37:00;;;;;;;7.18;4.57;;;;;;;20.04;48.81;101710.50;5011846;28;20417;-58
2021/06/25 05:39:28;;;;;;;6.13;4.00;;;;;;;20.05;48.65;101711.38;5011992;28;20034;-58
2021/06/25 05:41:53;;;;;;;5.40;3.95;;;;;;;20.05;48.81;101706.09;5012304;28;20045;-59
2021/06/25 05:44:18;;;;;;;6.83;4.47;;;;;;;20.04;48.95;101707.88;5011249;28;20022;-59
2021/06/25 05:46:44;;;;;;;6.18;4.00;;;;;;;20.04;49.15;101707.03;5012049;28;20444;-58
2021/06/25 05:49:09;;;;;;;5.57;4.13;;;;;;;20.04;48.94;101709.69;5012036;28;20030;-59
2021/06/25 05:51:34;;;;;;;5.82;4.25;;;;;;;20.04;49.04;101707.88;5011670;28;20282;-59
2021/06/25 05:54:02;;;;;;;5.82;4.25;;;;;;;20.04;48.98;101705.22;5012198;28;20018;-59
2021/06/25 05:56:27;;;;;;;6.43;4.28;;;;;;;20.05;49.07;101706.09;5012124;28;20029;-58
2021/06/25 05:58:52;;;;;;;6.22;4.22;;;;;;;20.03;48.87;101700.91;5011274;28;20030;-60
2021/06/25 06:01:18;;;;;;;5.50;3.90;;;;;;;20.04;48.81;101707.88;5011630;28;20446;-58
2021/06/25 06:03:45;;;;;;;6.10;3.42;;;;;;;20.03;48.96;101703.56;5012097;28;20294;-58
2021/06/25 06:06:13;;;;;;;5.75;3.60;;;;;;;20.06;49.12;101705.09;5009646;28;20054;-58
2021/06/25 06:08:38;;;;;;;5.90;3.75;;;;;;;20.06;48.81;101699.81;5011969;28;20062;-58
2021/06/25 06:11:05;;;;;;;6.32;4.70;;;;;;;20.05;49.33;101706.09;5011535;28;20026;-58
2021/06/25 06:13:30;;;;;;;6.43;4.38;;;;;;;20.03;49.18;101706.19;5011127;28;20026;-58
2021/06/25 06:15:57;;;;;;;7.97;4.20;;;;;;;20.03;49.44;101726.53;5011929;28;20132;-59
2021/06/25 06:18:29;;;;;;;6.18;3.90;;;;;;;20.05;49.55;101730.72;5011684;28;20049;-59
2021/06/25 06:20:54;;;;;;;5.72;3.83;;;;;;;20.05;49.81;101717.50;5011405;28;20073;-57
2021/06/25 06:31:33;;;;;;;6.28;4.68;;;;;;;20.09;50.21;101710.16;5011924;28;20030;-57
2021/06/25 06:34:05;;;;;;;6.43;4.60;;;;;;;20.08;50.13;101705.84;5011338;28;20030;-59
2021/06/25 06:36:34;;;;;;;5.63;3.72;;;;;;;20.10;50.28;101706.56;5011855;28;20022;-58
2021/06/25 06:39:03;;;;;;;6.07;3.97;;;;;;;20.12;50.32;101704.63;5012140;28;20049;-58
2021/06/25 06:41:28;;;;;;;8.02;5.13;;;;;;;20.11;50.07;101708.28;5011365;28;20022;-59
2021/06/25 06:43:54;;;;;;;10.98;7.00;;;;;;;20.08;50.23;101708.50;5011786;28;20040;-58
2021/06/25 06:46:20;;;;;;;9.88;6.70;;;;;;;20.05;50.39;101703.44;5011507;28;20033;-53
2021/06/25 06:48:47;;;;;;;7.05;5.10;;;;;;;20.06;50.57;101711.25;5014343;28;20383;-60
2021/06/25 06:51:14;;;;;;;9.32;5.50;;;;;;;20.08;50.77;101711.97;5013969;28;20057;-58
2021/06/25 06:53:45;;;;;;;7.60;5.40;;;;;;;20.11;50.83;101708.28;5015672;28;20149;-61
2021/06/25 06:56:12;;;;;;;6.60;4.97;;;;;;;20.11;50.76;101714.41;5014351;28;20438;-58
2021/06/25 06:58:41;;;;;;;8.05;5.00;;;;;;;20.12;50.65;101715.22;5015288;28;20482;-58
2021/06/25 07:01:08;;;;;;;6.35;5.10;;;;;;;20.12;50.66;101717.88;5014691;28;20126;-57
2021/06/25 07:03:34;;;;;;;7.00;4.82;;;;;;;20.15;50.56;101722.94;5015228;28;20050;-57
2021/06/25 07:06:00;;;;;;;8.43;5.20;;;;;;;20.14;50.59;101729.22;5015366;28;20081;-58
2021/06/25 07:08:25;;;;;;;7.75;5.18;;;;;;;20.14;50.92;101723.91;5014188;28;20099;-57
2021/06/25 07:10:51;;;;;;;8.00;5.07;;;;;;;20.14;50.55;101723.91;5015295;28;20065;-57
2021/06/25 07:13:16;;;;;;;6.72;4.95;;;;;;;20.16;51.13;101731.75;5014967;28;20029;-57
2021/06/25 07:15:41;;;;;;;8.48;4.80;;;;;;;20.16;51.04;101729.94;5014244;28;20026;-59
2021/06/25 07:18:07;;;;;;;10.98;5.07;;;;;;;20.19;51.20;101736.81;5014689;28;20021;-60
2021/06/25 07:20:33;;;;;;;8.32;4.85;;;;;;;20.19;50.95;101737.63;5015397;28;20385;-58
2021/06/25 07:23:00;;;;;;;7.80;4.65;;;;;;;20.18;51.17;101730.63;5013015;28;20026;-58
2021/06/25 07:25:25;;;;;;;9.25;4.32;;;;;;;20.22;51.29;101736.53;5014796;28;20500;-56
2021/06/25 07:27:54;;;;;;;6.57;4.45;;;;;;;20.21;51.46;101737.53;5014540;28;20053;-57
2021/06/25 07:30:19;;;;;;;8.80;4.80;;;;;;;20.23;51.49;101740.88;5013986;28;20033;-58
2021/06/25 07:32:45;;;;;;;6.55;4.80;;;;;;;20.22;51.39;101733.88;5014814;28;20121;-58
2021/06/25 07:35:10;;;;;;;8.48;4.63;;;;;;;20.23;51.30;101736.41;5014355;28;20022;-57
2021/06/25 07:37:36;;;;;;;6.25;4.43;;;;;;;20.23;51.71;101735.59;5013806;28;20029;-58
2021/06/25 07:40:03;;;;;;;6.68;4.25;;;;;;;20.24;51.44;101735.47;5014800;28;20032;-58
2021/06/25 07:42:28;;;;;;;6.25;4.40;;;;;;;20.24;51.82;101732.00;5014693;28;20029;-58
2021/06/25 07:44:53;;;;;;;8.45;4.53;;;;;;;20.23;51.70;101728.47;5014076;28;20029;-59
2021/06/25 07:47:19;;;;;;;7.70;4.45;;;;;;;20.25;51.53;101734.53;5014260;28;20392;-58
2021/06/25 07:49:52;;;;;;;7.55;4.65;;;;;;;20.25;51.56;101726.59;5014329;28;20525;-57
2021/06/25 07:52:18;;;;;;;6.18;4.18;;;;;;;20.25;51.61;101731.00;5013518;28;20017;-57
2021/06/25 07:55:36;;;;;;;6.03;4.30;;;;;;;20.24;51.88;101724.88;5014745;28;20533;-62
2021/06/25 07:58:09;;;;;;;5.55;4.25;;;;;;;20.27;51.80;101731.75;5013936;28;20037;-57
2021/06/25 08:00:35;;;;;;;6.93;4.60;;;;;;;20.27;51.83;101729.13;5014034;28;20036;-57
2021/06/25 08:03:00;;;;;;;7.18;4.47;;;;;;;20.27;52.08;101729.94;5014265;28;20017;-58
2021/06/25 08:05:25;;;;;;;8.48;4.65;;;;;;;20.29;51.89;101729.84;5013620;28;20030;-58
2021/06/25 08:07:50;;;;;;;7.53;4.75;;;;;;;20.29;51.86;101727.19;5014354;28;20030;-57
2021/06/25 08:10:16;;;;;;;6.20;4.70;;;;;;;20.30;52.26;101720.94;5012464;28;20486;-58
2021/06/25 08:12:41;;;;;;;6.90;4.60;;;;;;;20.33;52.22;101726.00;5014338;28;20084;-58
2021/06/25 08:15:27;;;;;;;12.93;4.70;;;;;;;20.35;52.53;101728.53;5018400;28;20094;-59
2021/06/25 08:18:00;;;;;;;7.97;4.38;;;;;;;20.35;52.23;101717.94;5020050;28;20042;-59
2021/06/25 08:20:28;;;;;;;6.85;4.20;;;;;;;20.39;52.62;101716.72;5015259;28;20077;-59
2021/06/25 08:22:56;;;;;;;7.13;4.40;;;;;;;20.38;52.13;101713.25;5016017;28;20093;-59
2021/06/25 08:25:25;;;;;;;6.63;4.50;;;;;;;20.40;52.11;101713.97;5015291;28;20061;-62
2021/06/25 08:27:58;;;;;;;6.40;4.32;;;;;;;20.40;52.11;101713.97;5014474;28;20382;-59
2021/06/25 08:30:25;;;;;;;6.57;4.00;;;;;;;20.40;52.08;101705.19;5017313;28;20087;-60
2021/06/25 08:32:51;;;;;;;6.93;4.00;;;;;;;20.40;51.99;101711.31;5017907;28;20036;-61
2021/06/25 08:35:21;;;;;;;8.13;4.22;;;;;;;20.41;52.04;101706.84;5018895;28;20026;-57
2021/06/25 08:37:48;;;;;;;6.55;3.83;;;;;;;20.41;51.91;101702.41;5014020;28;20018;-57
2021/06/25 08:40:13;;;;;;;6.18;3.85;;;;;;;20.39;52.14;101704.31;5012882;28;20053;-57
2021/06/25 08:42:39;;;;;;;7.15;3.78;;;;;;;20.38;51.98;101704.47;5013976;28;20362;-59
2021/06/25 08:45:11;;;;;;;7.15;4.30;;;;;;;20.37;51.85;101705.41;5013243;28;20018;-59
2021/06/25 08:47:47;;;;;;;5.68;4.00;;;;;;;20.36;52.04;101703.72;5014878;28;20029;-59
2021/06/25 08:50:15;;;;;;;5.72;3.85;;;;;;;20.35;51.71;101708.19;5013337;28;20025;-58
2021/06/25 08:52:52;;;;;;;8.80;4.30;;;;;;;20.34;52.00;101703.84;5013547;28;20053;-58
2021/06/25 08:55:19;;;;;;;6.18;4.15;;;;;;;20.33;51.51;101711.91;5012783;28;20061;-58
2021/06/25 08:57:45;;;;;;;6.85;4.05;;;;;;;20.34;51.74;101709.13;5013477;28;20045;-58
2021/06/25 09:00:13;;;;;;;5.90;4.10;;;;;;;20.36;51.69;101714.31;5014119;28;20026;-60
2021/06/25 09:02:39;;;;;;;7.60;4.65;;;;;;;20.38;51.47;101710.59;5013426;28;20022;-60
2021/06/25 09:05:22;;;;;;;6.95;4.10;;;;;;;20.39;51.49;101706.97;5013337;28;20033;-59
2021/06/25 09:07:49;;;;;;;6.38;4.03;;;;;;;20.43;51.26;101708.44;5012685;28;20044;-58
2021/06/25 09:10:27;;;;;;;7.25;4.28;;;;;;;20.44;51.60;101706.63;5012791;28;20025;-58
2021/06/25 09:13:10;;;;;;;8.30;4.15;;;;;;;20.44;51.49;101696.03;5013778;28;20030;-58
2021/06/25 09:15:36;;;;;;;5.78;4.00;;;;;;;20.45;51.55;101698.56;5012653;28;20517;-58
2021/06/25 09:18:20;;;;;;;7.95;4.07;;;;;;;20.44;51.60;101696.03;5013077;28;20030;-59
2021/06/25 09:20:48;;;;;;;6.18;4.00;;;;;;;20.46;51.32;101691.47;5014580;28;20071;-60
2021/06/25 09:23:26;;;;;;;7.70;4.30;;;;;;;20.48;51.44;101689.53;5011888;28;20030;-59
2021/06/25 09:26:09;;;;;;;5.22;3.90;;;;;;;20.48;51.30;101685.06;5013138;28;20036;-60
2021/06/25 09:28:41;;;;;;;5.60;4.25;;;;;;;20.52;51.09;101684.84;5013195;28;20121;-58
2021/06/25 09:31:17;;;;;;;7.40;3.80;;;;;;;20.53;51.03;101681.25;5011900;28;20053;-59
2021/06/25 09:33:44;;;;;;;6.28;4.30;;;;;;;20.53;50.95;101676.78;5012784;28;20026;-59
2021/06/25 09:36:23;;;;;;;7.25;3.95;;;;;;;20.54;51.02;101673.19;5011846;28;20034;-59
2021/06/25 09:38:57;;;;;;;8.57;4.22;;;;;;;20.56;50.79;101673.06;5012581;28;20033;-59
2021/06/25 09:41:25;;;;;;;7.10;3.58;;;;;;;20.55;50.68;101680.13;5012587;28;20105;-60
2021/06/25 09:43:59;;;;;;;6.50;4.25;;;;;;;20.56;50.72;101673.88;5012897;28;20068;-60
2021/06/25 09:46:45;;;;;;;6.60;4.07;;;;;;;20.56;50.73;101675.69;5013677;28;20033;-59
2021/06/25 09:49:13;;;;;;;6.05;3.72;;;;;;;20.56;50.71;101681.84;5012851;28;20072;-60
2021/06/25 09:51:52;;;;;;;5.70;3.83;;;;;;;20.56;50.94;101667.75;5012142;28;20101;-60
2021/06/25 09:54:17;;;;;;;8.65;4.00;;;;;;;20.57;50.84;101677.38;5012512;28;20127;-60
2021/06/25 09:56:51;;;;;;;5.85;3.80;;;;;;;20.57;50.90;101685.31;5012521;28;20026;-59
2021/06/25 10:02:22;;;;;;;6.70;3.88;;;;;;;20.56;50.82;101678.34;5000539;28;20041;-58
2021/06/25 10:05:14;;;;;;;5.70;3.78;;;;;;;20.56;50.74;101673.06;5031112;28;20108;-58
2021/06/25 10:07:39;;;;;;;6.20;3.70;;;;;;;20.56;50.75;101681.84;5029328;28;20037;-59
2021/06/25 10:10:10;;;;;;;9.13;4.45;;;;;;;20.56;50.72;101681.84;5031943;28;20088;-59
2021/06/25 10:12:41;;;;;;;6.70;5.00;;;;;;;20.57;50.77;101672.94;5031435;28;20036;-60
2021/06/25 10:15:07;;;;;;;7.75;5.30;;;;;;;20.59;50.93;101671.00;5031623;28;20469;-57
2021/06/25 10:17:35;;;;;;;10.35;6.25;;;;;;;20.61;50.79;101676.19;5032101;28;20036;-59
2021/06/25 10:20:07;;;;;;;9.52;7.28;;;;;;;20.63;50.76;101676.88;5031460;28;20099;-59
2021/06/25 10:22:34;;;;;;;9.45;8.20;;;;;;;20.65;51.16;101662.59;5033977;28;20399;-59
2021/06/25 10:25:01;;;;;;;13.20;8.73;;;;;;;20.67;51.19;101665.13;5035791;28;20036;-58
2021/06/25 10:27:27;;;;;;;10.75;9.05;;;;;;;20.70;51.80;101670.19;5034993;28;20124;-60
2021/06/25 10:29:53;;;;;;;13.20;9.70;;;;;;;20.74;51.53;101673.44;5035853;28;20022;-58
2021/06/25 10:32:19;;;;;;;11.30;9.40;;;;;;;20.75;51.49;101667.19;5034932;28;20025;-59
2021/06/25 10:34:45;;;;;;;10.55;9.50;;;;;;;20.78;51.72;101659.81;5035965;28;20113;-59
2021/06/25 10:37:15;;;;;;;10.55;8.55;;;;;;;20.79;51.59;101658.88;5035579;28;20130;-58
2021/06/25 10:39:40;;;;;;;9.85;8.68;;;;;;;20.78;51.41;101666.94;5035099;28;20036;-58
2021/06/25 10:42:10;;;;;;;15.43;9.05;;;;;;;20.79;51.50;101672.13;5035446;28;20033;-59
2021/06/25 10:44:51;;;;;;;9.23;7.85;;;;;;;20.80;51.53;101665.84;5035514;28;20053;-58
2021/06/25 10:47:24;;;;;;;9.60;7.95;;;;;;;20.81;51.37;101659.56;5034470;28;20033;-58
2021/06/25 10:49:58;;;;;;;9.35;7.93;;;;;;;20.84;51.38;101671.75;5034037;28;20029;-59
2021/06/25 10:52:25;;;;;;;9.18;7.45;;;;;;;20.86;51.32;101663.69;5035135;28;20152;-60
2021/06/25 10:55:03;;;;;;;11.75;6.93;;;;;;;20.86;51.39;101669.81;5034392;28;20044;-58
2021/06/25 10:57:34;;;;;;;9.00;6.68;;;;;;;20.84;51.30;101667.28;5035335;28;20025;-58
2021/06/25 11:00:00;;;;;;;9.15;6.95;;;;;;;20.83;51.45;101673.53;5035118;28;20034;-58
2021/06/25 11:02:43;;;;;;;11.85;6.15;;;;;;;20.82;51.17;101669.22;5034078;28;20026;-59
2021/06/25 11:05:27;;;;;;;7.90;6.00;;;;;;;20.80;51.14;101672.94;5034995;28;20041;-58
2021/06/25 11:08:15;;;;;;;7.90;6.13;;;;;;;20.79;51.23;101673.91;5034388;28;20040;-59
2021/06/25 11:10:52;;;;;;;10.13;6.65;;;;;;;20.77;51.12;101666.06;5031131;28;20460;-58
2021/06/25 11:13:22;;;;;;;7.72;6.22;;;;;;;20.77;50.99;101676.66;5034724;28;20037;-58
2021/06/25 11:15:53;;;;;;;6.40;5.53;;;;;;;20.76;50.98;101680.31;5034226;28;20112;-57
2021/06/25 11:18:22;;;;;;;8.50;5.93;;;;;;;20.76;51.15;101674.13;5034473;28;20465;-59
2021/06/25 11:21:16;;;;;;;6.85;5.70;;;;;;;20.75;51.07;101673.31;5034882;28;20034;-58
2021/06/25 11:23:44;;;;;;;11.02;6.10;;;;;;;20.74;51.13;101674.25;5034098;28;20048;-58
2021/06/25 11:26:15;;;;;;;9.35;5.75;;;;;;;20.74;51.16;101676.06;5034066;28;20112;-58
2021/06/25 11:28:43;;;;;;;8.02;5.80;;;;;;;20.71;51.17;101666.59;5034102;28;20048;-61
2021/06/25 11:33:55;;;;;;;6.93;5.95;;;;;;;20.72;51.32;101670.06;5034538;28;20080;-58
2021/06/25 11:36:39;;;;;;;8.38;5.55;;;;;;;20.73;50.96;101677.03;5033392;28;20405;-58
2021/06/25 11:39:09;;;;;;;8.57;5.78;;;;;;;20.73;51.14;101671.72;5034457;28;20025;-58
2021/06/25 11:41:53;;;;;;;7.00;5.40;;;;;;;20.72;51.09;101656.81;5034359;28;20615;-58